Aérodrome :
LOGIN :

S'inscrire | Disclaimer

   EN    FR    IT 

 










Légende :    VFR   VFR Marginal   IFR   IFR Intensif   IFR Très Intensif
Visi : 
Plafond : 
>= 8 km
>= 3000ft
5 à 8 km
1000 à 3000 ft
1500m à 5 km
500 à 1000 ft
800 à 1500m
200 à 500 ft
< 800m
< 200 ft
Symboles :   Orages  Brouillard  Fortes neiges  Fortes précipitations  Vent > 20 kt
SIGMETs :   Divers  Orages  Givrage  Turbulence  Onde Orograph.  Cendres Volcan.






- Altitude de l'aérodrome : 681 ft
- Code IATA : LBA


EGNM - Leeds Bradford

DERNIER METAR :
  • 221250Z 14007KT 110V170 8000 SCT003 BKN008 06/06 Q0995

METARs EXPIRÉS :
  • 221220Z 14008KT 9999 SCT003 BKN008 06/06 Q0995
  • 221150Z 14009KT 9999 SCT003 BKN008 06/06 Q0995
  • 221120Z 14009KT 100V170 3500 BR SCT003 BKN005 06/06 Q0995
  • 221050Z 14010KT 3500 BR SCT002 BKN003 06/06 Q0995
  • 221020Z 13011KT 1100 R14/P1500 BR BKN002 06/06 Q0995

TAF TAF EGNM
Valide du 22 à 12h jusqu'au 23 à 12h UTC


221058Z 2212/2312 13008KT 3000 -RADZ BKN003
BECMG 2212/2214 9999 NSW SCT003 BKN010
PROB30
TEMPO 2212/2213 1400 BR BKN001
TEMPO 2214/2302 9000 -RA BKN008
PROB40
TEMPO 2215/2220 4000 RA
BECMG 2300/2303 07010KT
BECMG 2302/2305 6000 -RADZ BKN005
TEMPO 2302/2312 1400 RADZ BR BKN002
ATIS : +44 113 250 9696 (x2489)



MET'MAP, la Météo Aéronautique d'un coup d'oeil ! - Copyright ORBIFLY Décembre 2007 - Disclaimer

ORBIFLY MET'MAP TEAM :

Programmation & Développement : Alexandra Zaïnal
Conception & Développement : Baudouin d'Aumeries
Co-Programmation & Développement : Marc-Olivier Méhu
Soutien technique & logistique : Manuel Goepfert

Contact : metmap@orbifly.com




SOURCES & CREDITS :

   NOAA